Stations météo

réclame
Mon MeteoGroup
Salamanca/Matacan, Espagne (8202): Température de l'air & dewpoint: 14.11.2017 01:00:00 - 20.11.2017 01:00:00 (CET)Salamanca/Matacan, Espagne (8202): Vitesse du vent: 14.11.2017 01:00:00 - 20.11.2017 01:00:00 (CET)Salamanca/Matacan, Espagne (8202): Direction du vent: 14.11.2017 01:00:00 - 20.11.2017 01:00:00 (CET)Salamanca/Matacan, Espagne (8202): visibility: 14.11.2017 01:00:00 - 20.11.2017 01:00:00 (CET)
Date & Time tt [°C] td [°C] ff [km/h] ff [knt] dd vv [km]
20.11.2017 01:00:00 - - - - - -
20.11.2017 00:00:00 -0,9 -2,3 0 0 N -
19.11.2017 23:00:00 -1,5 -3,0 2 1 N -
19.11.2017 22:00:00 0,4 -2,5 0 0 N -
19.11.2017 21:00:00 1,7 -1,0 0 0 N -
19.11.2017 20:00:00 3,2 -1,4 0 0 N -
19.11.2017 19:00:00 6,4 -0,8 4 2 - 10
19.11.2017 18:00:00 10,5 -0,6 4 2 - 10
19.11.2017 17:00:00 13,8 -0,7 4 2 - 10
19.11.2017 16:00:00 14,3 -0,3 2 1 - 10
19.11.2017 15:00:00 13,8 1,4 4 2 - 10
19.11.2017 14:00:00 12,5 3,4 2 1 - 10
19.11.2017 13:00:00 9,3 3,2 2 1 - 10
19.11.2017 12:00:00 5,5 2,0 0 0 N 8
19.11.2017 11:00:00 1,0 0,4 0 0 N 0,5
19.11.2017 10:00:00 -0,8 -1,2 0 0 N 0,1
19.11.2017 09:00:00 -1,6 -2,2 0 0 N -
19.11.2017 08:00:00 -4,1 -4,8 0 0 N 1,8
19.11.2017 07:00:00 -4,3 -5,0 0 0 N 3,0
19.11.2017 06:00:00 -4,0 -5,1 0 0 N -
19.11.2017 05:00:00 -3,2 -5,4 0 0 N -
19.11.2017 04:00:00 -3,4 -4,9 0 0 N -
19.11.2017 03:00:00 -2,3 -4,3 2 1 S -
19.11.2017 02:00:00 -1,4 -3,1 2 1 SW -
19.11.2017 01:00:00 -0,5 -2,9 4 2 N -
19.11.2017 00:00:00 1,5 -1,6 5 3 SSE -
18.11.2017 23:00:00 -0,7 -3,2 0 0 N -
18.11.2017 22:00:00 1,8 -1,1 2 1 ESE -
18.11.2017 21:00:00 2,7 -0,9 0 0 N -
18.11.2017 20:00:00 4,4 0,4 4 2 E -
18.11.2017 19:00:00 7,9 0,1 2 1 - 10
18.11.2017 18:00:00 12,0 0,7 2 1 - 10
18.11.2017 17:00:00 14,1 0,8 9 5 ENE 10
18.11.2017 16:00:00 14,6 1,2 11 6 ENE 10
18.11.2017 15:00:00 14,3 1,0 13 7 ENE 10
18.11.2017 14:00:00 13,6 1,2 11 6 E 10
18.11.2017 13:00:00 11,8 1,4 5 3 ENE 10
18.11.2017 12:00:00 9,7 1,1 8 4 ENE 10
18.11.2017 11:00:00 7,3 1,4 0 0 N 10
18.11.2017 10:00:00 3,6 0,5 0 0 N 10
18.11.2017 09:00:00 -1,6 -3,2 0 0 N 10
18.11.2017 08:00:00 -2,7 -3,5 0 0 N 10
18.11.2017 07:00:00 -2,0 -3,1 0 0 N 10
18.11.2017 06:00:00 -1,6 -2,7 4 2 SSW -
18.11.2017 05:00:00 -1,5 -2,5 0 0 N -
18.11.2017 04:00:00 -0,5 -2,1 0 0 N -
18.11.2017 03:00:00 0,1 -1,8 0 0 N -
18.11.2017 02:00:00 0,3 -1,6 0 0 N -
18.11.2017 01:00:00 0,9 -1,0 2 1 ESE -
18.11.2017 00:00:00 1,5 -0,9 0 0 N -
17.11.2017 23:00:00 1,9 -1,1 4 2 ENE -
17.11.2017 22:00:00 2,6 -0,3 0 0 N -
17.11.2017 21:00:00 4,5 -0,7 0 0 N -
17.11.2017 20:00:00 5,7 0,0 2 1 - 10
17.11.2017 19:00:00 9,5 0,1 4 2 - 10
17.11.2017 18:00:00 12,3 0,5 4 2 - 10
17.11.2017 17:00:00 15,3 1,0 4 2 - 10
17.11.2017 16:00:00 15,8 0,5 9 5 NNE 10
17.11.2017 15:00:00 16,9 0,5 5 3 NE 10
17.11.2017 14:00:00 15,9 1,9 0 0 N 10
17.11.2017 13:00:00 13,1 2,0 0 0 N 10
17.11.2017 12:00:00 10,3 1,0 0 0 N 10
17.11.2017 11:00:00 6,9 0,6 0 0 N 10
17.11.2017 10:00:00 2,8 -0,7 0 0 N 10
17.11.2017 09:00:00 -1,3 -2,7 0 0 N 9
17.11.2017 08:00:00 -3,1 -4,1 0 0 N 10
17.11.2017 07:00:00 -2,7 -4,0 0 0 N 10
17.11.2017 06:00:00 -2,0 -3,6 0 0 N -
17.11.2017 05:00:00 -2,0 -3,3 4 2 ENE -
17.11.2017 04:00:00 -1,3 -2,6 0 0 N -
17.11.2017 03:00:00 -1,4 -3,0 0 0 N -
17.11.2017 02:00:00 -0,9 -2,6 0 0 N -
17.11.2017 01:00:00 -0,8 -3,0 0 0 N -
17.11.2017 00:00:00 0,7 -1,5 0 0 N -
16.11.2017 23:00:00 1,0 -1,2 0 0 N -
16.11.2017 22:00:00 1,9 -1,7 0 0 N -
16.11.2017 21:00:00 3,6 -1,6 2 1 - 10
16.11.2017 20:00:00 6,2 -1,5 0 0 N 10
16.11.2017 19:00:00 8,2 -0,8 2 1 - 10
16.11.2017 18:00:00 11,7 -0,5 5 3 NE 10
16.11.2017 17:00:00 15,3 -0,9 5 3 E 10
16.11.2017 16:00:00 15,5 -1,1 5 3 ENE 10
16.11.2017 15:00:00 15,4 -0,9 8 4 E 10
16.11.2017 14:00:00 14,8 -0,1 5 3 E 10
16.11.2017 13:00:00 12,0 0,9 2 1 - 10
16.11.2017 12:00:00 10,5 0,6 0 0 N 10
16.11.2017 11:00:00 6,5 0,5 0 0 N 10
16.11.2017 10:00:00 2,2 -1,0 0 0 N 10
16.11.2017 09:00:00 -1,5 -2,8 0 0 N 10
16.11.2017 08:00:00 -3,4 -4,5 0 0 N 10
16.11.2017 07:00:00 -3,1 -3,9 0 0 N 10
16.11.2017 06:00:00 -3,2 -4,2 0 0 N -
16.11.2017 05:00:00 -2,4 -3,7 0 0 N -
16.11.2017 04:00:00 -2,4 -3,7 0 0 N -
16.11.2017 03:00:00 -1,9 -3,3 0 0 N -
16.11.2017 02:00:00 -1,7 -3,1 0 0 N -
16.11.2017 01:00:00 -1,2 -2,7 0 0 N -
16.11.2017 00:00:00 -0,2 -2,3 0 0 N -
15.11.2017 23:00:00 0,4 -1,8 2 1 SSE -
15.11.2017 22:00:00 1,5 -1,4 2 1 NE -
15.11.2017 21:00:00 2,8 -1,8 0 0 N 10
15.11.2017 20:00:00 5,9 -1,2 2 1 - 10
15.11.2017 19:00:00 8,2 -1,4 0 0 N 10
15.11.2017 18:00:00 12,3 -0,9 4 2 WNW 10
15.11.2017 17:00:00 14,9 -2,4 9 5 WNW 10
15.11.2017 16:00:00 14,6 -1,9 5 3 W 10
15.11.2017 15:00:00 13,8 -1,8 9 5 WNW 10
15.11.2017 14:00:00 12,8 -1,4 5 3 WNW 10
15.11.2017 13:00:00 10,8 -0,7 2 1 - 10
15.11.2017 12:00:00 7,6 -0,8 0 0 N 10
15.11.2017 11:00:00 4,9 -1,2 0 0 N 10
15.11.2017 10:00:00 2,2 -2,0 0 0 N 10
15.11.2017 09:00:00 -1,6 -3,2 2 1 - 10
15.11.2017 08:00:00 -3,0 -4,3 0 0 N 10
15.11.2017 07:00:00 -3,4 -5,1 0 0 N 10
15.11.2017 06:00:00 -2,9 -5,0 0 0 N -
15.11.2017 05:00:00 -1,4 -4,2 5 3 SSW -
15.11.2017 04:00:00 -1,3 -4,1 4 2 S -
15.11.2017 03:00:00 -2,1 -4,6 8 4 WNW -
15.11.2017 02:00:00 1,5 -3,8 8 4 E -
15.11.2017 01:00:00 2,5 -3,2 11 6 NE -
15.11.2017 00:00:00 0,5 -3,6 4 2 NNE -
14.11.2017 23:00:00 2,1 -3,4 11 6 E -
14.11.2017 22:00:00 2,4 -3,3 5 3 E -
14.11.2017 21:00:00 3,6 -2,6 2 1 - 10
14.11.2017 20:00:00 4,5 -2,2 5 3 E 10
14.11.2017 19:00:00 6,3 -1,8 4 2 - 10
14.11.2017 18:00:00 8,6 -1,5 5 3 ENE 10
14.11.2017 17:00:00 10,7 -1,1 16 9 ENE 10
14.11.2017 16:00:00 10,9 -0,6 16 9 E 10
14.11.2017 15:00:00 10,2 0,2 16 9 E 10
14.11.2017 14:00:00 9,4 0,3 18 10 ENE 10
14.11.2017 13:00:00 8,1 0,1 22 12 E 10
14.11.2017 12:00:00 6,7 -0,2 21 11 E 10
14.11.2017 11:00:00 5,8 0,4 22 12 E 10
14.11.2017 10:00:00 3,2 0,3 8 4 E 10
14.11.2017 09:00:00 0,2 -1,6 5 3 E 10
14.11.2017 08:00:00 -2,2 -3,6 8 4 E 10
14.11.2017 07:00:00 -2,1 -3,6 5 3 ESE 10
14.11.2017 06:00:00 -1,7 -3,1 9 5 E -
14.11.2017 05:00:00 -1,8 -3,5 4 2 E -
14.11.2017 04:00:00 -1,4 -3,0 13 7 E -
14.11.2017 03:00:00 -2,0 -3,7 8 4 E -
14.11.2017 02:00:00 -1,0 -2,9 4 2 ESE -
14.11.2017 01:00:00 -0,5 -2,7 8 4 E -

tt = Température de l'air
td = dewpoint
ff = Vitesse du vent
dd = Direction du vent
vv = visibility

stations d'obs. à proximité